Time;durP1;ratioP1;P1;durP2;ratioP2;P2;SDS_P1;SDS_P2;PMS_P1;PMS_P2;Temp;Humidity;BMP_temperature;BMP_pressure;BME280_temperature;BME280_humidity;BME280_pressure;Samples;Min_cycle;Max_cycle;Signal;HPM_P1;HPM_P2
2021/08/05 00:02:06;;;;;;;9.88;7.67;;;;;;;26.72;55.53;99588.00;1766042;79;21118;-69
2021/08/05 00:04:32;;;;;;;8.78;7.80;;;;;;;26.73;55.53;99589.62;1804540;79;21066;-65
2021/08/05 00:06:59;;;;;;;8.43;7.62;;;;;;;26.73;55.50;99586.89;1827182;77;21097;-65
2021/08/05 00:09:26;;;;;;;7.92;7.12;;;;;;;26.73;55.43;99584.17;1844742;77;21034;-65
2021/08/05 00:11:56;;;;;;;8.53;7.00;;;;;;;26.72;55.56;99578.47;1829136;77;21052;-66
2021/08/05 00:14:22;;;;;;;10.25;7.60;;;;;;;26.72;55.58;99582.00;1823190;77;21016;-67
2021/08/05 00:16:50;;;;;;;7.70;7.00;;;;;;;26.71;55.55;99575.46;1831182;77;21129;-65
2021/08/05 00:19:18;;;;;;;8.25;7.40;;;;;;;26.70;55.58;99569.20;1840476;77;21065;-67
2021/08/05 00:21:45;;;;;;;9.13;7.50;;;;;;;26.70;55.50;99567.03;1842446;77;20987;-64
2021/08/05 00:24:12;;;;;;;7.72;6.92;;;;;;;26.68;55.56;99566.75;1848482;77;21068;-66
2021/08/05 00:26:39;;;;;;;7.65;6.95;;;;;;;26.67;55.62;99567.03;1848273;77;21008;-66
2021/08/05 00:29:08;;;;;;;7.78;7.00;;;;;;;26.69;55.66;99560.75;1845019;77;21126;-66
2021/08/05 00:31:35;;;;;;;8.95;8.10;;;;;;;26.67;55.60;99561.02;1845355;77;21006;-68
2021/08/05 00:34:02;;;;;;;8.03;7.22;;;;;;;26.68;55.58;99559.94;1845176;77;21025;-67
2021/08/05 00:36:30;;;;;;;7.80;7.10;;;;;;;26.68;55.58;99552.33;1842485;77;21010;-69
2021/08/05 00:38:57;;;;;;;7.72;7.03;;;;;;;26.67;55.53;99548.77;1845691;77;21002;-67
2021/08/05 00:41:23;;;;;;;7.85;6.85;;;;;;;26.66;55.52;99541.70;1828134;77;21136;-67
2021/08/05 00:43:49;;;;;;;7.85;7.05;;;;;;;26.66;55.47;99547.70;1827359;77;21477;-68
2021/08/05 00:46:17;;;;;;;8.00;7.30;;;;;;;26.65;55.38;99548.23;1830630;76;21081;-66
2021/08/05 00:48:44;;;;;;;7.75;7.08;;;;;;;26.66;55.34;99550.42;1833890;77;21033;-66
2021/08/05 00:51:14;;;;;;;7.20;6.50;;;;;;;26.67;55.33;99549.31;1828975;77;21085;-65
2021/08/05 00:53:43;;;;;;;7.83;7.03;;;;;;;26.65;55.30;99547.42;1832876;77;21140;-66
2021/08/05 00:56:09;;;;;;;6.78;6.17;;;;;;;26.66;55.27;99544.98;1831914;77;21042;-64
2021/08/05 00:58:37;;;;;;;7.72;7.10;;;;;;;26.65;55.19;99543.33;1838957;77;21078;-64
2021/08/05 01:01:13;;;;;;;7.65;6.80;;;;;;;26.65;55.16;99544.70;1842056;77;21046;-65
2021/08/05 01:03:43;;;;;;;7.15;6.45;;;;;;;26.64;55.13;99539.00;1820878;77;21028;-65
2021/08/05 01:06:23;;;;;;;7.50;6.70;;;;;;;26.64;54.97;99541.16;1846419;77;21829;-64
2021/08/05 01:08:59;;;;;;;7.87;6.47;;;;;;;26.62;54.92;99531.09;1829601;77;21685;-66
2021/08/05 01:11:29;;;;;;;7.37;6.53;;;;;;;26.63;54.82;99537.35;1831277;77;21034;-66
2021/08/05 01:14:02;;;;;;;7.17;6.58;;;;;;;26.61;54.82;99532.17;1837976;77;21092;-66
2021/08/05 01:16:30;;;;;;;7.85;7.10;;;;;;;26.62;54.69;99538.46;1828399;77;21501;-65
2021/08/05 01:19:09;;;;;;;8.05;7.08;;;;;;;26.62;54.64;99537.09;1824223;77;21037;-66
2021/08/05 01:22:02;;;;;;;7.42;6.72;;;;;;;26.62;54.60;99535.73;1810907;77;21568;-65
2021/08/05 01:24:31;;;;;;;;;;;;;;;26.62;54.54;99539.27;1824334;77;21096;-64
2021/08/05 01:27:04;;;;;;;6.60;6.10;;;;;;;26.62;54.60;99529.73;1804921;78;20459;-66
2021/08/05 01:29:33;;;;;;;;;;;;;;;26.55;54.64;99535.19;1836906;77;21073;-64
2021/08/05 01:32:02;;;;;;;6.65;5.87;;;;;;;26.56;54.57;99534.91;1833178;77;21193;-65
2021/08/05 01:34:29;;;;;;;6.80;6.20;;;;;;;26.51;54.53;99532.75;1783161;78;21038;-67
2021/08/05 01:36:56;;;;;;;6.78;5.90;;;;;;;26.52;54.48;99535.20;1756668;79;21026;-65
2021/08/05 01:39:22;;;;;;;7.42;6.60;;;;;;;26.54;54.45;99537.10;1831952;77;21146;-65
2021/08/05 01:41:49;;;;;;;7.33;6.42;;;;;;;26.55;54.33;99529.73;1828960;77;21025;-63
2021/08/05 01:44:16;;;;;;;7.30;6.60;;;;;;;26.56;54.21;99529.98;1831772;77;21132;-63
2021/08/05 01:46:43;;;;;;;7.03;6.33;;;;;;;26.56;54.18;99531.35;1831190;77;21555;-65
2021/08/05 01:49:09;;;;;;;7.30;6.60;;;;;;;26.56;54.12;99529.98;1830765;77;21516;-64
2021/08/05 01:51:36;;;;;;;7.03;6.40;;;;;;;26.58;54.02;99530.52;1820474;77;21096;-64
2021/08/05 01:54:02;;;;;;;6.78;6.10;;;;;;;26.57;54.03;99523.46;1837144;77;21128;-65
2021/08/05 01:56:29;;;;;;;7.67;6.87;;;;;;;26.59;54.00;99532.20;1821275;77;21116;-65
2021/08/05 01:58:57;;;;;;;7.00;6.40;;;;;;;26.60;53.96;99531.12;1843190;77;21046;-64
2021/08/05 02:01:24;;;;;;;6.80;6.15;;;;;;;26.59;53.77;99523.47;1835345;77;21097;-65
2021/08/05 02:04:46;;;;;;;7.83;7.00;;;;;;;26.58;53.81;99523.19;1847316;77;21089;-64
2021/08/05 02:07:17;;;;;;;7.20;6.58;;;;;;;26.58;53.76;99523.19;1735813;81;21640;-64
2021/08/05 02:10:03;;;;;;;7.40;6.45;;;;;;;26.57;53.78;99520.73;1836266;77;21179;-67
2021/08/05 02:12:34;;;;;;;7.20;6.50;;;;;;;26.56;53.78;99515.01;1829973;77;21068;-64
2021/08/05 02:15:02;;;;;;;7.03;6.37;;;;;;;26.56;53.77;99521.81;1836726;77;21513;-66
2021/08/05 02:17:38;;;;;;;6.92;6.30;;;;;;;26.55;53.78;99519.65;1839836;77;21005;-65
2021/08/05 02:20:06;;;;;;;8.85;7.40;;;;;;;26.56;53.78;99523.18;1779853;80;21121;-65
2021/08/05 02:22:34;;;;;;;7.70;6.87;;;;;;;26.55;53.77;99518.28;1776757;80;21159;-65
2021/08/05 02:25:02;;;;;;;7.10;6.40;;;;;;;26.56;53.77;99519.93;1767213;80;21025;-65
2021/08/05 02:27:29;;;;;;;7.55;6.35;;;;;;;26.56;53.77;99513.64;1771381;80;21049;-67
2021/08/05 02:29:56;;;;;;;7.33;6.72;;;;;;;26.56;53.71;99513.13;1794101;79;21041;-64
2021/08/05 02:32:23;;;;;;;6.70;6.03;;;;;;;26.55;53.74;99514.76;1750271;80;21692;-66
2021/08/05 02:34:49;;;;;;;7.00;6.40;;;;;;;26.55;53.73;99514.76;1845834;77;21111;-65
2021/08/05 02:37:15;;;;;;;6.80;6.20;;;;;;;26.54;53.72;99513.11;1826611;77;21052;-64
2021/08/05 02:39:43;;;;;;;7.30;6.15;;;;;;;26.53;53.75;99507.41;1833502;77;20967;-65
2021/08/05 02:42:10;;;;;;;7.50;6.83;;;;;;;26.53;53.75;99513.67;1832795;77;20998;-64
2021/08/05 02:44:36;;;;;;;7.55;6.72;;;;;;;26.54;53.76;99518.56;1812534;77;21643;-66
2021/08/05 02:47:04;;;;;;;7.28;6.67;;;;;;;26.54;53.73;99508.50;1797451;78;21127;-63
2021/08/05 02:49:32;;;;;;;8.20;7.45;;;;;;;26.55;53.79;99513.39;1797754;79;21025;-65
2021/08/05 02:51:59;;;;;;;7.00;6.30;;;;;;;26.55;53.75;99510.67;1802202;79;21057;-68
2021/08/05 02:54:26;;;;;;;7.08;6.42;;;;;;;26.55;53.75;99506.59;1804282;79;21458;-66
2021/08/05 02:56:53;;;;;;;7.28;6.22;;;;;;;26.54;53.78;99504.41;1788572;78;21037;-66
2021/08/05 02:59:22;;;;;;;7.53;6.83;;;;;;;26.55;53.80;99505.22;1808290;79;21134;-66
2021/08/05 03:01:48;;;;;;;7.35;6.65;;;;;;;26.55;53.78;99503.30;1796765;78;21493;-67
2021/08/05 03:04:16;;;;;;;6.70;6.10;;;;;;;26.55;53.79;99500.58;1805650;79;21828;-65
2021/08/05 03:06:42;;;;;;;8.85;7.62;;;;;;;26.56;53.76;99503.59;1800213;78;21050;-65
2021/08/05 03:09:11;;;;;;;7.22;6.58;;;;;;;26.56;53.76;99502.23;1803772;79;21036;-66
2021/08/05 03:11:37;;;;;;;8.25;6.65;;;;;;;26.57;53.73;99496.22;1798522;79;21520;-64
2021/08/05 03:14:04;;;;;;;7.60;6.90;;;;;;;26.57;53.77;99497.58;1795146;78;21033;-66
2021/08/05 03:16:31;;;;;;;7.30;6.70;;;;;;;26.58;53.76;99497.31;1803892;79;21053;-66
2021/08/05 03:18:59;;;;;;;7.40;6.33;;;;;;;26.59;53.72;99495.42;1810111;79;21050;-69
2021/08/05 03:21:27;;;;;;;6.70;6.00;;;;;;;26.60;53.74;99495.70;1735681;82;21108;-66
2021/08/05 03:23:53;;;;;;;6.92;6.33;;;;;;;26.61;53.69;99498.68;1806887;78;21134;-66
2021/08/05 03:26:20;;;;;;;6.92;6.33;;;;;;;26.62;53.68;99505.22;1808807;79;21489;-66
2021/08/05 03:28:46;;;;;;;8.55;7.00;;;;;;;26.62;53.58;99497.59;1803634;79;21069;-66
2021/08/05 03:31:12;;;;;;;7.67;6.97;;;;;;;26.62;53.54;99503.05;1796850;79;21042;-68
2021/08/05 03:33:39;;;;;;;7.42;6.55;;;;;;;26.62;53.45;99498.96;1811050;79;21057;-66
2021/08/05 03:36:05;;;;;;;6.55;5.95;;;;;;;26.63;53.49;99500.58;1791300;78;21733;-67
2021/08/05 03:38:32;;;;;;;7.08;6.47;;;;;;;26.63;53.48;99491.04;1795696;78;21531;-65
2021/08/05 03:41:01;;;;;;;7.33;6.72;;;;;;;26.63;53.48;99497.30;1801265;78;20973;-66
2021/08/05 03:43:28;;;;;;;11.48;7.12;;;;;;;26.64;53.49;99496.77;1809235;78;21078;-66
2021/08/05 03:45:54;;;;;;;6.70;6.20;;;;;;;26.65;53.49;99492.94;1743561;80;21116;-67
2021/08/05 03:48:21;;;;;;;7.00;6.40;;;;;;;26.66;53.44;99493.22;1807953;78;21042;-67
2021/08/05 03:50:48;;;;;;;10.05;7.12;;;;;;;26.66;53.46;99492.66;1735780;80;21103;-66
2021/08/05 03:53:15;;;;;;;7.58;6.87;;;;;;;26.68;53.47;99491.02;1801744;79;21012;-68
2021/08/05 03:55:43;;;;;;;6.78;6.17;;;;;;;26.70;53.47;99492.11;1735875;82;21516;-66
2021/08/05 03:58:10;;;;;;;7.53;6.92;;;;;;;26.71;53.47;99491.00;1802725;79;21041;-67
2021/08/05 04:00:37;;;;;;;7.50;6.80;;;;;;;26.71;53.47;99493.72;1797433;79;21124;-67
2021/08/05 04:03:03;;;;;;;7.35;6.65;;;;;;;26.72;53.39;99496.73;1796100;79;21517;-66
2021/08/05 04:05:29;;;;;;;7.65;7.00;;;;;;;26.72;53.34;99496.17;1768738;80;21022;-67
2021/08/05 04:07:56;;;;;;;7.03;6.20;;;;;;;26.74;53.39;99497.26;1762542;80;21049;-66
2021/08/05 04:10:22;;;;;;;7.80;6.70;;;;;;;26.74;53.42;99493.98;1728543;82;21099;-67
2021/08/05 04:12:50;;;;;;;8.75;6.80;;;;;;;26.75;53.38;99491.51;1760997;80;21951;-64
2021/08/05 04:15:16;;;;;;;7.25;6.45;;;;;;;26.77;53.35;99492.59;1725774;81;21033;-65
2021/08/05 04:17:45;;;;;;;7.70;6.95;;;;;;;26.79;53.41;99491.77;1756665;80;21038;-63
2021/08/05 04:20:13;;;;;;;7.10;6.47;;;;;;;26.79;53.35;99494.48;1795153;79;21080;-64
2021/08/05 04:22:39;;;;;;;10.45;6.97;;;;;;;26.80;53.38;99497.49;1801637;79;21108;-65
2021/08/05 04:25:08;;;;;;;6.78;6.12;;;;;;;26.81;53.32;99501.83;1741078;81;21150;-66
2021/08/05 04:27:36;;;;;;;8.05;7.15;;;;;;;26.81;53.22;99499.11;1792800;79;21011;-65
2021/08/05 04:30:05;;;;;;;6.75;6.17;;;;;;;26.82;53.17;99502.91;1801844;79;21076;-65
2021/08/05 04:32:32;;;;;;;6.78;6.17;;;;;;;26.81;53.19;99501.83;1806298;78;21069;-65
2021/08/05 04:35:00;;;;;;;7.65;6.90;;;;;;;26.80;53.11;99491.48;1798334;79;21124;-65
2021/08/05 04:37:27;;;;;;;7.83;6.75;;;;;;;26.80;53.00;99491.48;1803685;79;21138;-64
2021/08/05 04:39:53;;;;;;;8.05;7.25;;;;;;;26.80;52.92;99486.59;1805354;79;21029;-65
2021/08/05 04:42:20;;;;;;;7.97;7.28;;;;;;;26.78;53.04;99488.23;1802423;79;21544;-64
2021/08/05 04:44:46;;;;;;;8.18;6.87;;;;;;;26.79;53.06;99487.15;1809159;79;20993;-63
2021/08/05 04:47:12;;;;;;;9.13;7.67;;;;;;;26.79;53.04;99484.95;1821812;77;20985;-65
2021/08/05 04:49:40;;;;;;;7.40;6.37;;;;;;;26.80;53.03;99487.40;1790788;79;21137;-63
2021/08/05 04:52:06;;;;;;;7.22;6.53;;;;;;;26.81;53.02;99479.50;1746186;80;21002;-66
2021/08/05 04:54:36;;;;;;;9.03;7.40;;;;;;;26.83;52.96;99482.76;1767093;80;21025;-63
2021/08/05 04:57:03;;;;;;;7.60;6.90;;;;;;;26.86;52.87;99483.54;1742339;80;21934;-66
2021/08/05 04:59:30;;;;;;;7.62;6.83;;;;;;;26.87;52.86;99485.73;1768595;80;21063;-65
2021/08/05 05:01:56;;;;;;;7.95;7.15;;;;;;;26.88;52.79;99485.43;1756542;80;21095;-64
2021/08/05 05:04:23;;;;;;;10.38;7.10;;;;;;;26.90;52.80;99482.43;1751617;80;21154;-66
2021/08/05 05:06:50;;;;;;;7.45;6.75;;;;;;;26.90;52.80;99483.80;1752997;80;21279;-65
2021/08/05 05:09:16;;;;;;;8.40;7.05;;;;;;;26.90;52.76;99477.53;1770281;80;21504;-65
2021/08/05 05:11:43;;;;;;;8.78;7.75;;;;;;;26.93;52.61;99481.08;1761583;80;21076;-65
2021/08/05 05:14:09;;;;;;;8.30;7.10;;;;;;;26.95;52.58;99478.32;1765845;80;21101;-64
2021/08/05 05:16:36;;;;;;;8.15;6.70;;;;;;;26.96;52.58;99475.84;1756870;80;21094;-66
2021/08/05 05:19:03;;;;;;;9.78;7.78;;;;;;;26.98;52.51;99479.66;1768076;80;21053;-64
2021/08/05 05:21:29;;;;;;;8.55;7.62;;;;;;;26.98;52.42;99476.38;1770390;79;21118;-64
2021/08/05 05:23:56;;;;;;;8.35;7.55;;;;;;;27.01;52.40;99481.83;1806667;79;21022;-66
2021/08/05 05:26:22;;;;;;;9.83;7.55;;;;;;;27.03;52.42;99483.72;1770974;79;21506;-66
2021/08/05 05:28:48;;;;;;;8.33;7.53;;;;;;;27.04;52.43;99483.97;1806889;79;20986;-63
2021/08/05 05:31:15;;;;;;;10.23;8.85;;;;;;;27.04;52.36;99478.52;1771000;79;21083;-66
2021/08/05 05:33:41;;;;;;;8.33;7.53;;;;;;;27.05;52.30;99485.05;1847139;77;20986;-64
2021/08/05 05:36:08;;;;;;;8.25;7.12;;;;;;;27.07;52.23;99482.05;1846940;77;21056;-64
2021/08/05 05:38:34;;;;;;;10.72;8.05;;;;;;;27.08;52.26;99480.94;1843814;77;21102;-64
2021/08/05 05:41:00;;;;;;;10.20;7.62;;;;;;;27.09;52.30;99481.22;1824844;77;21041;-64
2021/08/05 05:43:26;;;;;;;8.70;7.78;;;;;;;27.12;52.40;99486.64;1847303;77;21583;-67
2021/08/05 05:45:53;;;;;;;8.93;8.03;;;;;;;27.13;52.38;99495.91;1838444;77;21013;-65
2021/08/05 05:48:19;;;;;;;9.68;8.68;;;;;;;27.16;52.39;99499.44;1844873;77;21045;-67
2021/08/05 05:50:46;;;;;;;9.95;7.75;;;;;;;27.17;52.25;99495.59;1841225;77;21133;-64
2021/08/05 05:53:12;;;;;;;8.83;7.72;;;;;;;27.20;52.20;99498.33;1838162;77;21096;-70
2021/08/05 05:55:40;;;;;;;9.28;8.38;;;;;;;27.21;52.20;99493.92;1848396;77;21045;-65
2021/08/05 05:58:06;;;;;;;11.03;8.55;;;;;;;27.24;52.12;99492.56;1847881;77;21046;-65
2021/08/05 06:00:33;;;;;;;11.25;9.05;;;;;;;27.25;52.00;99490.95;1843664;77;21081;-67
2021/08/05 06:03:02;;;;;;;13.15;8.75;;;;;;;27.26;52.01;99490.39;1836687;77;21081;-65
2021/08/05 06:05:28;;;;;;;9.50;8.60;;;;;;;27.28;52.09;99488.20;1841199;77;21056;-66
2021/08/05 06:07:55;;;;;;;12.13;8.93;;;;;;;27.29;52.00;99491.17;1845238;77;21041;-66
2021/08/05 06:10:22;;;;;;;11.28;8.35;;;;;;;27.30;51.92;99487.36;1845350;77;21060;-66
2021/08/05 06:12:50;;;;;;;11.22;8.50;;;;;;;27.32;51.66;99489.25;1843234;77;21088;-65
2021/08/05 06:15:17;;;;;;;12.18;9.13;;;;;;;27.32;51.65;99483.80;1837430;77;21100;-66
2021/08/05 06:17:45;;;;;;;12.35;10.10;;;;;;;27.33;51.68;99479.14;1840353;77;21041;-68
2021/08/05 06:20:14;;;;;;;11.12;9.48;;;;;;;27.35;51.61;99479.14;1842058;77;21100;-66
2021/08/05 06:22:42;;;;;;;10.20;9.23;;;;;;;27.37;51.54;99476.11;1844770;77;21077;-65
2021/08/05 06:25:10;;;;;;;12.07;10.28;;;;;;;27.38;51.50;99477.19;1844090;77;20997;-64
2021/08/05 06:27:37;;;;;;;13.03;8.68;;;;;;;27.38;51.34;99475.83;1835630;77;21141;-66
2021/08/05 06:30:05;;;;;;;11.12;9.10;;;;;;;27.40;51.36;99476.36;1838673;77;22068;-66
2021/08/05 06:32:32;;;;;;;10.23;9.10;;;;;;;27.41;51.09;99473.91;1838536;77;21005;-65
2021/08/05 06:34:59;;;;;;;11.15;8.53;;;;;;;27.44;51.00;99470.59;1839244;77;21005;-68
2021/08/05 06:37:25;;;;;;;9.68;8.83;;;;;;;27.46;50.95;99476.56;1845696;77;21080;-65
2021/08/05 06:39:53;;;;;;;15.20;9.75;;;;;;;27.47;50.83;99474.67;1835511;77;21167;-65
2021/08/05 06:42:19;;;;;;;12.63;9.63;;;;;;;27.48;51.09;99473.56;1836228;77;21033;-63
2021/08/05 06:44:45;;;;;;;10.43;9.15;;;;;;;27.51;51.46;99467.55;1833717;77;21663;-64
2021/08/05 06:47:12;;;;;;;12.53;9.55;;;;;;;27.53;51.94;99466.70;1834291;77;21042;-64
2021/08/05 06:49:38;;;;;;;11.38;9.33;;;;;;;27.55;51.91;99474.05;1823493;78;21112;-64
2021/08/05 06:52:05;;;;;;;14.18;9.48;;;;;;;27.58;52.57;99469.39;1830550;78;21065;-67
2021/08/05 06:54:32;;;;;;;10.48;9.05;;;;;;;27.62;53.02;99469.08;1836104;77;21036;-66
2021/08/05 06:56:58;;;;;;;19.52;8.98;;;;;;;27.67;53.27;99467.40;1835984;77;22056;-67
2021/08/05 06:59:24;;;;;;;13.62;9.63;;;;;;;27.71;52.87;99462.98;1826536;77;21029;-63
2021/08/05 07:01:51;;;;;;;11.35;8.85;;;;;;;27.75;52.61;99462.67;1797637;77;21030;-64
2021/08/05 07:04:17;;;;;;;12.15;8.90;;;;;;;27.78;52.59;99460.73;1820857;77;21342;-64
2021/08/05 07:06:44;;;;;;;9.70;8.73;;;;;;;27.80;52.56;99457.97;1818839;77;21064;-64
2021/08/05 07:09:10;;;;;;;14.05;8.80;;;;;;;27.83;52.38;99452.47;1826023;77;21070;-67
2021/08/05 07:11:38;;;;;;;10.80;8.93;;;;;;;27.85;52.34;99451.63;1826054;77;22172;-64
2021/08/05 07:14:05;;;;;;;15.20;8.30;;;;;;;27.87;52.18;99449.98;1829494;77;21025;-64
2021/08/05 07:16:31;;;;;;;10.08;8.25;;;;;;;27.89;52.29;99450.53;1829792;77;21099;-64
2021/08/05 07:18:59;;;;;;;9.80;8.73;;;;;;;27.91;52.29;99445.06;1827163;77;21525;-65
2021/08/05 07:21:25;;;;;;;11.73;8.95;;;;;;;27.94;52.16;99443.66;1829944;77;21026;-65
2021/08/05 07:23:52;;;;;;;11.50;8.23;;;;;;;27.96;52.17;99439.53;1831003;77;21066;-67
2021/08/05 07:26:18;;;;;;;11.15;8.20;;;;;;;28.00;51.98;99431.58;1822276;77;21063;-68
2021/08/05 07:28:45;;;;;;;9.90;8.95;;;;;;;28.02;51.86;99430.17;1832646;77;21988;-67
2021/08/05 07:31:12;;;;;;;10.55;8.80;;;;;;;28.05;51.48;99423.34;1826626;77;21681;-68
2021/08/05 07:33:38;;;;;;;9.50;8.55;;;;;;;28.04;51.07;99421.14;1825429;77;21189;-69
2021/08/05 07:36:04;;;;;;;11.08;9.13;;;;;;;28.03;51.26;99414.06;1821285;77;21060;-66
2021/08/05 07:38:31;;;;;;;12.20;9.28;;;;;;;28.04;51.58;99414.31;1828912;77;21120;-67
2021/08/05 07:40:57;;;;;;;11.15;8.85;;;;;;;28.06;51.74;99417.31;1830377;76;22481;-68
2021/08/05 07:43:24;;;;;;;10.03;8.60;;;;;;;28.08;51.28;99411.01;1828114;77;21093;-70
2021/08/05 07:45:50;;;;;;;11.40;8.35;;;;;;;28.10;50.90;99403.33;1831548;77;21041;-68
2021/08/05 07:48:17;;;;;;;10.58;8.00;;;;;;;28.11;51.05;99413.16;1840204;77;21056;-67
2021/08/05 07:50:43;;;;;;;11.10;8.60;;;;;;;28.13;50.67;99404.13;1850935;77;21904;-67
2021/08/05 07:53:09;;;;;;;8.58;7.67;;;;;;;28.16;50.57;99404.89;1843320;77;21089;-67
2021/08/05 07:55:36;;;;;;;10.75;8.68;;;;;;;28.17;50.62;99405.97;1842557;77;21457;-68
2021/08/05 07:58:03;;;;;;;9.53;8.63;;;;;;;28.19;50.61;99407.05;1845473;77;21503;-71
2021/08/05 08:00:29;;;;;;;10.88;9.15;;;;;;;28.21;50.34;99408.92;1838732;77;21481;-71
2021/08/05 08:02:56;;;;;;;11.78;9.28;;;;;;;28.22;50.19;99403.71;1842317;77;20982;-66
2021/08/05 08:05:22;;;;;;;11.15;8.23;;;;;;;28.24;50.04;99405.06;1840986;77;21972;-69
2021/08/05 08:07:48;;;;;;;11.68;9.13;;;;;;;28.28;50.03;99406.66;1846067;77;21077;-68
2021/08/05 08:10:15;;;;;;;11.12;8.63;;;;;;;28.29;49.92;99394.61;1843021;77;21140;-67
2021/08/05 08:12:42;;;;;;;9.35;8.45;;;;;;;28.34;49.99;99399.20;1847197;77;20989;-69
2021/08/05 08:15:11;;;;;;;8.60;7.55;;;;;;;28.36;50.10;99394.27;1837901;77;21065;-70
2021/08/05 08:17:37;;;;;;;11.25;8.68;;;;;;;28.39;49.98;99389.00;1848534;77;21148;-71
2021/08/05 08:20:06;;;;;;;8.60;7.80;;;;;;;28.42;49.94;99391.70;1848708;77;21116;-70
2021/08/05 08:22:33;;;;;;;9.75;8.35;;;;;;;28.44;49.95;99393.59;1843661;77;21033;-70
2021/08/05 08:25:00;;;;;;;10.32;9.30;;;;;;;28.46;49.88;99391.37;1845866;76;21218;-69
2021/08/05 08:27:27;;;;;;;13.50;9.60;;;;;;;28.47;49.92;99389.45;1841518;77;21548;-70
2021/08/05 08:29:53;;;;;;;8.75;7.95;;;;;;;28.47;49.88;99386.72;1849660;76;21181;-69
2021/08/05 08:32:19;;;;;;;8.70;7.72;;;;;;;28.48;50.05;99386.98;1841765;77;21112;-70
2021/08/05 08:34:48;;;;;;;8.70;7.80;;;;;;;28.50;50.20;99384.77;1850202;77;21478;-69
2021/08/05 08:37:14;;;;;;;9.33;7.87;;;;;;;28.52;50.29;99389.41;1838974;77;21041;-66
2021/08/05 08:39:40;;;;;;;9.40;8.43;;;;;;;28.53;50.23;99399.22;1836770;77;21020;-69
2021/08/05 08:42:07;;;;;;;8.75;8.05;;;;;;;28.54;50.11;99389.92;1837049;77;21038;-69
2021/08/05 08:44:35;;;;;;;15.20;12.05;;;;;;;28.55;49.81;99397.84;1843221;77;21488;-68
2021/08/05 08:47:02;;;;;;;12.73;9.50;;;;;;;28.57;49.79;99397.55;1840405;77;21116;-70
2021/08/05 08:49:31;;;;;;;9.85;8.58;;;;;;;28.57;49.20;99393.45;1827704;77;21017;-68
2021/08/05 08:51:58;;;;;;;10.70;8.23;;;;;;;28.60;49.08;99391.47;1836348;77;21493;-69
2021/08/05 08:54:24;;;;;;;10.68;8.48;;;;;;;28.62;49.10;99395.52;1825833;77;21075;-69
2021/08/05 08:56:52;;;;;;;9.70;7.95;;;;;;;28.66;48.94;99400.41;1834877;77;21002;-67
2021/08/05 08:59:19;;;;;;;8.70;7.92;;;;;;;28.70;48.70;99390.50;1832316;77;21086;-69
2021/08/05 09:01:45;;;;;;;11.57;9.20;;;;;;;28.74;48.80;99401.93;1833768;77;21061;-70
2021/08/05 09:04:12;;;;;;;8.85;8.05;;;;;;;28.78;48.77;99385.19;1830817;77;21053;-69
2021/08/05 09:06:40;;;;;;;9.95;7.53;;;;;;;28.83;48.94;99378.25;1829894;77;21157;-69
2021/08/05 09:09:07;;;;;;;10.50;7.40;;;;;;;28.90;48.71;99385.28;1826976;77;21082;-71
2021/08/05 09:11:34;;;;;;;13.08;7.97;;;;;;;28.95;48.40;99393.38;1821890;77;21009;-69
2021/08/05 09:14:00;;;;;;;10.90;8.45;;;;;;;28.99;47.84;99388.41;1834928;77;21068;-70
2021/08/05 09:16:29;;;;;;;12.75;7.90;;;;;;;29.01;47.66;99386.72;1829180;77;21119;-68
2021/08/05 09:19:14;;;;;;;10.70;7.97;;;;;;;29.02;47.64;99386.98;1833987;77;21593;-68
2021/08/05 09:21:51;;;;;;;10.63;7.42;;;;;;;29.02;47.51;99387.78;1828144;77;21541;-69
2021/08/05 09:24:28;;;;;;;9.33;8.33;;;;;;;29.04;47.76;99392.16;1829778;77;21025;-73
2021/08/05 09:27:02;;;;;;;12.07;8.40;;;;;;;29.06;48.42;99396.77;1777705;77;21057;-72
2021/08/05 09:29:27;;;;;;;9.05;8.15;;;;;;;29.09;48.41;99392.05;1831057;77;21125;-68
2021/08/05 09:31:58;;;;;;;9.00;8.20;;;;;;;29.10;47.73;99389.59;1826693;77;21936;-69
2021/08/05 09:34:36;;;;;;;9.85;8.53;;;;;;;29.11;47.50;99395.30;1827754;77;22305;-68
2021/08/05 09:37:05;;;;;;;9.08;8.25;;;;;;;29.12;47.58;99398.30;1829647;77;20974;-68
2021/08/05 09:39:39;;;;;;;13.35;8.30;;;;;;;29.12;47.46;99393.67;1830245;77;21076;-69
2021/08/05 09:42:08;;;;;;;10.65;8.95;;;;;;;29.13;47.04;99382.17;1833298;77;21063;-71
2021/08/05 09:44:44;;;;;;;10.05;8.45;;;;;;;29.13;47.15;99385.73;1824322;77;21113;-66
2021/08/05 09:47:20;;;;;;;11.12;8.48;;;;;;;29.14;47.24;99381.88;1834043;77;21024;-73
2021/08/05 09:49:51;;;;;;;8.23;7.47;;;;;;;29.16;47.63;99379.64;1840605;77;21041;-68
2021/08/05 09:52:32;;;;;;;9.33;8.43;;;;;;;29.20;47.42;99366.98;1844012;76;21154;-69
2021/08/05 09:55:00;;;;;;;8.58;7.70;;;;;;;29.23;47.22;99371.62;1836025;77;21566;-68
2021/08/05 09:57:41;;;;;;;9.83;8.03;;;;;;;29.26;47.28;99372.38;1837608;77;21723;-68
2021/08/05 10:00:16;;;;;;;9.03;8.13;;;;;;;29.29;47.61;99375.33;1845748;76;21817;-67
2021/08/05 10:02:51;;;;;;;11.05;7.42;;;;;;;29.33;47.80;99372.23;1842024;77;21053;-66
2021/08/05 10:05:22;;;;;;;8.73;7.55;;;;;;;29.36;47.88;99371.65;1835816;77;21079;-67
2021/08/05 10:07:55;;;;;;;8.80;8.00;;;;;;;29.40;47.88;99367.75;1843550;77;21535;-67
2021/08/05 10:10:27;;;;;;;8.03;7.22;;;;;;;29.44;47.91;99369.30;1814836;77;21243;-68
2021/08/05 10:12:59;;;;;;;8.35;7.65;;;;;;;29.48;47.88;99365.67;1829018;77;21072;-69
2021/08/05 10:15:27;;;;;;;9.40;7.87;;;;;;;29.50;48.05;99360.71;1829219;77;21072;-67
2021/08/05 10:17:59;;;;;;;10.28;8.00;;;;;;;29.54;47.92;99361.72;1832441;77;21063;-65
2021/08/05 10:20:27;;;;;;;8.05;7.28;;;;;;;29.57;47.87;99362.50;1834652;76;21088;-66
2021/08/05 10:22:56;;;;;;;10.70;7.80;;;;;;;29.60;47.83;99355.03;1822793;77;21142;-66
2021/08/05 10:25:25;;;;;;;8.38;7.67;;;;;;;29.65;47.78;99345.09;1821590;77;21017;-67
2021/08/05 10:27:53;;;;;;;15.50;9.03;;;;;;;29.68;47.61;99352.14;1830472;77;22297;-70
2021/08/05 10:30:19;;;;;;;9.45;8.53;;;;;;;29.72;47.36;99342.77;1821698;77;20982;-71
2021/08/05 10:32:47;;;;;;;8.38;7.47;;;;;;;29.75;47.05;99344.94;1827151;77;21041;-69
2021/08/05 10:35:13;;;;;;;9.03;8.10;;;;;;;29.77;47.18;99334.48;1821744;77;21186;-68
2021/08/05 10:37:40;;;;;;;9.13;8.20;;;;;;;29.79;47.21;99328.95;1839020;77;21009;-70
2021/08/05 10:40:09;;;;;;;8.85;7.95;;;;;;;29.82;47.22;99333.56;1855503;77;21522;-66
2021/08/05 10:42:35;;;;;;;8.88;8.08;;;;;;;29.84;47.26;99334.86;1834428;77;21014;-70
2021/08/05 10:45:02;;;;;;;9.10;7.53;;;;;;;29.85;47.35;99337.06;1823432;77;21072;-70
2021/08/05 10:47:29;;;;;;;9.08;8.18;;;;;;;29.87;47.41;99329.36;1828059;77;22015;-69
2021/08/05 10:49:58;;;;;;;9.18;8.35;;;;;;;29.89;47.37;99340.24;1816216;77;21153;-68
2021/08/05 10:52:40;;;;;;;8.93;8.13;;;;;;;29.89;47.32;99336.13;1812266;77;21064;-67
2021/08/05 10:55:34;;;;;;;8.75;7.72;;;;;;;29.89;47.26;99333.39;1829075;77;21093;-68
2021/08/05 10:58:14;;;;;;;9.03;8.28;;;;;;;29.91;47.22;99331.73;1818561;77;21092;-71
2021/08/05 11:03:36;;;;;;;9.18;8.38;;;;;;;29.94;47.25;99325.08;1840961;76;22551;-69
2021/08/05 11:06:26;;;;;;;9.30;8.40;;;;;;;29.87;47.40;99326.62;1800564;78;21448;-68
2021/08/05 11:08:52;;;;;;;8.90;8.15;;;;;;;29.88;47.44;99322.20;1800631;78;21059;-68
2021/08/05 11:11:26;;;;;;;9.28;8.43;;;;;;;29.89;47.49;99319.70;1798063;78;20965;-66
2021/08/05 11:14:05;;;;;;;9.40;8.48;;;;;;;29.90;47.48;99320.51;1794567;77;20969;-68
2021/08/05 11:17:04;;;;;;;8.58;7.72;;;;;;;29.91;47.55;99316.67;1816487;77;20898;-67
2021/08/05 11:19:36;;;;;;;8.68;7.95;;;;;;;29.90;47.48;99314.50;1796557;78;21060;-70
2021/08/05 11:22:39;;;;;;;9.48;7.87;;;;;;;29.89;47.50;99307.95;1817232;77;21485;-67
2021/08/05 11:25:06;;;;;;;9.48;7.62;;;;;;;29.87;47.50;99305.52;1829136;77;20938;-66
2021/08/05 11:27:32;;;;;;;8.33;7.62;;;;;;;29.86;47.54;99295.67;1838804;77;20996;-66
2021/08/05 11:29:59;;;;;;;8.88;8.03;;;;;;;29.87;47.56;99290.45;1840077;76;21107;-66
2021/08/05 11:32:36;;;;;;;9.40;8.60;;;;;;;29.87;47.61;99295.94;1828134;77;21169;-66
2021/08/05 11:35:08;;;;;;;9.30;8.38;;;;;;;29.86;47.71;99294.87;1823977;77;21127;-68
2021/08/05 11:37:35;;;;;;;9.38;8.25;;;;;;;29.86;47.77;99289.39;1832771;77;21040;-67
2021/08/05 11:40:05;;;;;;;9.45;8.58;;;;;;;29.85;47.88;99285.85;1822852;77;21025;-67
2021/08/05 11:42:34;;;;;;;9.83;8.53;;;;;;;29.85;47.89;99279.01;1829643;77;21569;-64